Time;durP1;ratioP1;P1;durP2;ratioP2;P2;SDS_P1;SDS_P2;PMS_P1;PMS_P2;Temp;Humidity;BMP_temperature;BMP_pressure;BME280_temperature;BME280_humidity;BME280_pressure;Samples;Min_cycle;Max_cycle;Signal;HPM_P1;HPM_P2
2021/04/07 00:00:21;;;;;;;7.25;3.70;;;;;;;-1.29;88.05;96324.19;4993007;28;20100;-62
2021/04/07 00:02:46;;;;;;;7.45;3.83;;;;;;;-1.45;87.74;96321.00;5005284;28;20073;-63
2021/04/07 00:05:15;;;;;;;5.78;3.78;;;;;;;-1.24;87.57;96310.66;5000451;28;20427;-62
2021/04/07 00:07:43;;;;;;;6.93;3.72;;;;;;;-1.31;85.97;96322.91;5016077;28;20046;-62
2021/04/07 00:10:12;;;;;;;6.03;3.55;;;;;;;-1.34;86.01;96318.91;4997695;28;20049;-61
2021/04/07 00:12:38;;;;;;;6.00;3.25;;;;;;;-1.46;86.67;96311.38;4996742;28;20141;-62
2021/04/07 00:15:08;;;;;;;8.68;3.67;;;;;;;-1.54;86.70;96307.47;5017442;28;20124;-64
2021/04/07 00:17:33;;;;;;;4.95;4.10;;;;;;;-1.54;86.86;96315.53;5025624;28;20477;-61
2021/04/07 00:19:59;;;;;;;5.05;3.88;;;;;;;-1.53;87.31;96310.97;5032032;28;20041;-62
2021/04/07 00:22:24;;;;;;;5.03;3.65;;;;;;;-1.67;87.49;96310.16;5015966;28;20070;-58
2021/04/07 00:24:49;;;;;;;11.35;4.43;;;;;;;-1.58;87.96;96313.75;4966129;28;20054;-63
2021/04/07 00:27:16;;;;;;;7.28;4.10;;;;;;;-1.50;87.54;96309.56;4998032;28;20107;-61
2021/04/07 00:29:42;;;;;;;5.38;3.63;;;;;;;-1.44;86.77;96308.34;5002638;28;20038;-61
2021/04/07 00:32:07;;;;;;;7.63;3.92;;;;;;;-1.49;86.99;96314.66;4979924;28;20061;-63
2021/04/07 00:34:34;;;;;;;11.00;4.57;;;;;;;-1.55;87.04;96313.13;4972162;28;20042;-63
2021/04/07 00:36:59;;;;;;;8.88;4.18;;;;;;;-1.54;87.71;96304.78;4964298;28;20046;-64
2021/04/07 00:39:25;;;;;;;6.45;4.47;;;;;;;-1.40;88.46;96309.38;4960362;28;20109;-62
2021/04/07 00:41:50;;;;;;;7.90;3.92;;;;;;;-1.37;87.75;96314.94;4997207;28;20038;-62
2021/04/07 00:44:15;;;;;;;7.97;3.97;;;;;;;-1.24;87.73;96302.59;4997909;28;20050;-62
2021/04/07 00:46:41;;;;;;;4.82;3.53;;;;;;;-1.06;87.37;96306.25;5001785;28;20046;-62
2021/04/07 00:49:06;;;;;;;6.03;3.35;;;;;;;-1.00;87.08;96296.19;4980012;28;20052;-61
2021/04/07 00:51:32;;;;;;;5.45;3.80;;;;;;;-1.24;86.49;96302.59;5001883;28;20038;-64
2021/04/07 00:53:57;;;;;;;5.75;4.15;;;;;;;-1.30;86.82;96303.78;5002584;28;20062;-62
2021/04/07 00:56:23;;;;;;;10.48;4.65;;;;;;;-1.35;87.84;96295.84;4995441;28;20104;-62
2021/04/07 00:58:48;;;;;;;6.78;3.88;;;;;;;-1.46;87.77;96305.19;5003334;28;20038;-62
2021/04/07 01:01:14;;;;;;;5.57;4.20;;;;;;;-1.45;88.46;96307.56;5001779;28;20052;-62
2021/04/07 01:03:39;;;;;;;6.20;4.35;;;;;;;-1.38;88.74;96310.66;5004549;28;20049;-62
2021/04/07 01:06:05;;;;;;;6.80;4.22;;;;;;;-1.14;88.46;96306.97;4998469;28;20042;-63
2021/04/07 01:08:30;;;;;;;5.60;3.90;;;;;;;-1.10;88.39;96307.16;4965915;28;20587;-63
2021/04/07 01:10:56;;;;;;;7.00;4.53;;;;;;;-0.99;88.23;96301.28;4982776;28;20050;-63
2021/04/07 01:13:21;;;;;;;7.55;3.78;;;;;;;-0.82;87.33;96300.63;4978212;28;21632;-62
2021/04/07 01:15:47;;;;;;;6.30;3.97;;;;;;;-0.93;87.04;96291.19;4999061;28;20406;-61
2021/04/07 01:18:12;;;;;;;6.43;4.40;;;;;;;-0.90;87.07;96295.97;5016277;28;20050;-62
2021/04/07 01:20:38;;;;;;;6.72;4.50;;;;;;;-1.25;87.29;96300.22;5022372;28;20056;-61
2021/04/07 01:23:03;;;;;;;7.60;4.80;;;;;;;-1.13;88.82;96299.69;4998974;28;20193;-63
2021/04/07 01:25:30;;;;;;;9.52;4.75;;;;;;;-1.25;88.56;96301.00;5020556;28;20048;-61
2021/04/07 01:27:56;;;;;;;7.20;4.45;;;;;;;-1.25;89.54;96294.84;5021514;28;20041;-61
2021/04/07 01:30:22;;;;;;;8.40;4.63;;;;;;;-1.31;89.98;96296.84;5016557;28;21849;-61
2021/04/07 01:32:47;;;;;;;12.75;5.65;;;;;;;-1.38;89.77;96297.22;5003928;28;20160;-63
2021/04/07 01:35:16;;;;;;;9.82;5.53;;;;;;;-1.38;90.08;96296.44;5017653;28;20052;-63
2021/04/07 01:37:42;;;;;;;9.98;5.25;;;;;;;-1.50;89.89;96304.19;5020138;28;20049;-60
2021/04/07 01:40:14;;;;;;;8.07;5.65;;;;;;;-1.29;90.21;96300.00;5016191;28;20053;-61
2021/04/07 01:42:41;;;;;;;7.28;4.50;;;;;;;-1.05;89.47;96304.38;5023387;28;20088;-62
2021/04/07 01:45:08;;;;;;;8.85;4.80;;;;;;;-1.02;88.88;96299.19;5016241;28;20128;-63
2021/04/07 01:47:34;;;;;;;7.35;4.57;;;;;;;-0.94;88.53;96302.25;5019740;28;20053;-62
2021/04/07 01:50:01;;;;;;;6.95;4.47;;;;;;;-0.85;88.53;96300.44;5022943;28;20060;-63
2021/04/07 01:52:28;;;;;;;5.13;4.30;;;;;;;-0.75;88.44;96302.91;5017608;28;20045;-60
2021/04/07 01:54:54;;;;;;;8.07;4.60;;;;;;;-0.73;88.12;96298.03;5022539;28;20654;-61
2021/04/07 01:57:19;;;;;;;6.80;3.92;;;;;;;-0.74;88.32;96303.69;5018344;28;20041;-62
2021/04/07 01:59:45;;;;;;;8.43;4.53;;;;;;;-0.84;88.34;96310.91;5005787;28;20042;-62
2021/04/07 02:02:10;;;;;;;8.90;4.60;;;;;;;-0.82;88.61;96311.38;5021333;28;20044;-61
2021/04/07 02:04:36;;;;;;;6.45;4.38;;;;;;;-0.72;88.44;96305.00;5028288;28;20049;-61
2021/04/07 02:07:08;;;;;;;8.02;4.68;;;;;;;-0.65;87.95;96305.38;5018131;28;20105;-63
2021/04/07 02:09:34;;;;;;;8.35;4.82;;;;;;;-0.80;88.01;96303.03;5014482;28;20046;-64
2021/04/07 02:11:59;;;;;;;6.03;4.20;;;;;;;-0.73;87.99;96295.34;5015220;28;20117;-62
2021/04/07 02:14:25;;;;;;;7.03;4.82;;;;;;;-0.71;87.47;96303.88;5010759;28;20041;-62
2021/04/07 02:16:53;;;;;;;6.93;4.63;;;;;;;-0.70;87.71;96302.81;5033624;28;20424;-63
2021/04/07 02:19:23;;;;;;;8.63;4.72;;;;;;;-0.59;87.09;96314.13;5031344;28;20093;-62
2021/04/07 02:22:09;;;;;;;8.27;5.25;;;;;;;-0.71;86.90;96308.47;5019799;28;20045;-62
2021/04/07 02:24:40;;;;;;;8.50;4.93;;;;;;;-0.88;87.57;96307.22;5035059;28;20044;-62
2021/04/07 02:27:13;;;;;;;12.75;4.95;;;;;;;-0.72;87.57;96310.38;5008759;28;20046;-64
2021/04/07 02:29:41;;;;;;;6.22;4.78;;;;;;;-0.97;87.69;96315.19;5021707;28;20037;-64
2021/04/07 02:32:07;;;;;;;8.88;5.45;;;;;;;-1.02;88.23;96311.84;4997554;28;20046;-61
2021/04/07 02:34:33;;;;;;;6.30;4.72;;;;;;;-1.10;88.58;96315.22;4991593;28;20133;-61
2021/04/07 02:36:59;;;;;;;7.55;5.05;;;;;;;-0.91;88.16;96307.03;4982389;28;20042;-61
2021/04/07 02:39:25;;;;;;;7.18;4.93;;;;;;;-0.89;88.42;96311.00;4976967;28;20043;-63
2021/04/07 02:41:51;;;;;;;7.03;4.80;;;;;;;-0.78;87.57;96320.44;4982220;28;20042;-61
2021/04/07 02:44:16;;;;;;;7.85;5.60;;;;;;;-0.87;87.95;96306.13;4998238;28;20045;-62
2021/04/07 02:46:42;;;;;;;10.90;5.90;;;;;;;-0.97;86.68;96319.78;5003920;28;20072;-60
2021/04/07 02:49:08;;;;;;;7.80;5.38;;;;;;;-1.02;86.92;96322.59;4974110;28;20037;-61
2021/04/07 02:51:33;;;;;;;7.93;5.93;;;;;;;-1.07;88.02;96318.09;4984939;28;20100;-62
2021/04/07 02:54:00;;;;;;;9.00;5.78;;;;;;;-1.06;87.56;96324.25;4968771;28;20056;-65
2021/04/07 02:56:28;;;;;;;9.38;5.57;;;;;;;-1.20;87.04;96332.34;4997216;28;20137;-61
2021/04/07 02:58:54;;;;;;;11.43;5.95;;;;;;;-1.10;87.52;96334.03;5001750;28;20048;-61
2021/04/07 03:01:19;;;;;;;10.00;5.43;;;;;;;-1.13;87.18;96343.50;5004762;28;20034;-61
2021/04/07 03:03:45;;;;;;;8.25;4.88;;;;;;;-1.19;87.18;96345.50;5005506;28;20045;-62
2021/04/07 03:06:10;;;;;;;9.55;5.88;;;;;;;-1.16;87.72;96342.19;4997293;28;20030;-60
2021/04/07 03:08:36;;;;;;;9.13;5.72;;;;;;;-1.16;87.83;96341.41;5005172;28;20116;-62
2021/04/07 03:11:01;;;;;;;8.75;5.85;;;;;;;-1.14;87.25;96347.28;5014617;28;20037;-62
2021/04/07 03:13:27;;;;;;;9.00;6.07;;;;;;;-1.36;87.84;96354.13;5001615;28;20061;-62
2021/04/07 03:15:52;;;;;;;8.65;5.82;;;;;;;-1.23;88.30;96359.81;5002589;28;20128;-61
2021/04/07 03:18:18;;;;;;;7.72;6.47;;;;;;;-1.27;87.50;96358.81;5005499;28;20500;-62
2021/04/07 03:20:43;;;;;;;8.60;6.00;;;;;;;-1.28;87.50;96358.00;4991251;28;20042;-62
2021/04/07 03:23:08;;;;;;;8.25;5.35;;;;;;;-1.37;87.19;96363.31;4996489;28;20421;-61
2021/04/07 03:25:34;;;;;;;7.93;5.75;;;;;;;-1.24;87.06;96363.59;5014928;28;20482;-61
2021/04/07 03:27:59;;;;;;;10.32;5.55;;;;;;;-1.20;86.90;96375.34;5008192;28;20038;-61
2021/04/07 03:30:25;;;;;;;6.95;4.80;;;;;;;-1.30;85.84;96368.28;5010822;28;20052;-61
2021/04/07 03:32:50;;;;;;;6.30;4.90;;;;;;;-1.22;85.31;96377.53;5023660;28;20497;-60
2021/04/07 03:35:16;;;;;;;6.88;4.40;;;;;;;-1.22;85.44;96382.91;4994336;28;20550;-62
2021/04/07 03:37:41;;;;;;;9.40;4.85;;;;;;;-1.25;85.27;96381.59;4978073;28;20054;-61
2021/04/07 03:40:08;;;;;;;5.78;4.65;;;;;;;-1.25;84.45;96389.66;4986243;28;20049;-62
2021/04/07 03:42:33;;;;;;;10.55;4.15;;;;;;;-1.68;84.77;96402.53;5009464;28;20054;-63
2021/04/07 03:44:59;;;;;;;5.88;4.35;;;;;;;-1.60;84.70;96399.97;5021218;28;20046;-63
2021/04/07 03:47:24;;;;;;;6.15;3.83;;;;;;;-1.48;82.75;96407.53;4999789;28;20437;-63
2021/04/07 03:49:49;;;;;;;5.15;3.55;;;;;;;-1.44;82.39;96418.50;5005093;28;20053;-60
2021/04/07 03:52:15;;;;;;;6.07;3.65;;;;;;;-1.45;81.70;96420.41;4981254;28;20129;-62
2021/04/07 03:54:43;;;;;;;3.63;2.95;;;;;;;-1.37;80.72;96419.72;5002896;28;20053;-63
2021/04/07 03:57:08;;;;;;;5.57;3.30;;;;;;;-1.45;79.99;96425.78;4980997;28;20053;-62
2021/04/07 03:59:34;;;;;;;4.55;2.90;;;;;;;-1.56;80.16;96424.34;5008445;28;20220;-60
2021/04/07 04:01:59;;;;;;;5.05;3.15;;;;;;;-1.50;79.02;96428.53;5004637;28;20375;-62
2021/04/07 04:04:24;;;;;;;5.57;3.33;;;;;;;-1.47;77.74;96430.66;5002089;28;20050;-62
2021/04/07 04:06:52;;;;;;;3.58;2.65;;;;;;;-1.57;78.74;96434.31;5000250;28;20034;-60
2021/04/07 04:09:17;;;;;;;6.13;2.80;;;;;;;-1.57;78.12;96439.69;5000945;28;20049;-61
2021/04/07 04:11:42;;;;;;;5.28;3.00;;;;;;;-1.62;77.93;96445.13;5004075;28;20046;-61
2021/04/07 04:14:08;;;;;;;5.15;2.75;;;;;;;-1.55;76.52;96444.75;4990037;28;20033;-62
2021/04/07 04:16:33;;;;;;;3.63;2.88;;;;;;;-1.55;76.52;96453.63;5015124;28;20041;-62
2021/04/07 04:18:59;;;;;;;3.97;2.55;;;;;;;-1.54;74.93;96459.78;5022705;28;20472;-63
2021/04/07 04:21:25;;;;;;;5.50;2.40;;;;;;;-1.72;76.39;96466.78;5017678;28;20394;-63
2021/04/07 04:23:50;;;;;;;3.60;2.90;;;;;;;-1.62;75.75;96476.56;5007515;28;20038;-62
2021/04/07 04:26:15;;;;;;;3.33;2.40;;;;;;;-1.77;76.74;96475.69;5009336;28;20083;-63
2021/04/07 04:28:41;;;;;;;3.70;2.75;;;;;;;-1.80;76.63;96481.69;5000172;28;20096;-62
2021/04/07 04:31:06;;;;;;;5.10;2.50;;;;;;;-1.73;75.24;96492.03;5005203;28;20057;-64
2021/04/07 04:33:32;;;;;;;3.50;2.63;;;;;;;-1.62;74.77;96493.47;5001280;28;20046;-62
2021/04/07 04:35:57;;;;;;;4.43;2.72;;;;;;;-1.59;74.83;96500.16;4986030;28;21592;-62
2021/04/07 04:38:26;;;;;;;6.85;2.35;;;;;;;-1.61;75.14;96508.50;5000623;28;20513;-62
2021/04/07 04:40:53;;;;;;;2.95;2.55;;;;;;;-1.63;75.52;96512.56;5002083;28;20030;-63
2021/04/07 04:43:19;;;;;;;7.95;2.90;;;;;;;-1.57;75.02;96508.69;4994172;28;20034;-62
2021/04/07 04:45:44;;;;;;;4.25;2.65;;;;;;;-1.59;75.81;96516.25;4988811;28;20069;-62
2021/04/07 04:48:10;;;;;;;4.82;2.70;;;;;;;-1.62;75.78;96522.19;5018113;28;20044;-62
2021/04/07 04:50:35;;;;;;;6.05;2.70;;;;;;;-1.71;76.03;96532.00;5022640;28;20509;-62
2021/04/07 04:53:01;;;;;;;6.78;2.90;;;;;;;-1.65;76.49;96538.94;5004885;28;20068;-61
2021/04/07 04:55:26;;;;;;;6.28;2.65;;;;;;;-1.56;76.59;96537.16;5002018;28;20048;-61
2021/04/07 04:57:54;;;;;;;5.57;2.72;;;;;;;-1.57;77.16;96544.44;4998313;28;20060;-61
2021/04/07 05:00:19;;;;;;;5.53;2.80;;;;;;;-1.56;77.17;96555.97;4980737;28;20050;-62
2021/04/07 05:02:45;;;;;;;4.28;2.47;;;;;;;-1.45;76.41;96545.88;4986937;28;20120;-61
2021/04/07 05:05:11;;;;;;;4.85;3.30;;;;;;;-1.45;75.77;96556.63;5004234;28;20033;-62
2021/04/07 05:07:37;;;;;;;4.07;2.90;;;;;;;-1.61;76.12;96567.56;5001272;28;20045;-61
2021/04/07 05:10:03;;;;;;;4.50;2.63;;;;;;;-1.68;77.08;96569.81;5008084;28;20038;-62
2021/04/07 05:12:28;;;;;;;6.13;2.88;;;;;;;-1.67;76.66;96582.19;4990632;28;20050;-61
2021/04/07 05:14:53;;;;;;;4.72;2.72;;;;;;;-1.75;77.34;96588.19;4992422;28;20575;-61
2021/04/07 05:17:19;;;;;;;4.22;2.60;;;;;;;-1.65;77.29;96590.75;5010398;28;20124;-62
2021/04/07 05:19:44;;;;;;;3.72;2.70;;;;;;;-1.64;76.45;96594.22;5009898;28;20077;-62
2021/04/07 05:22:10;;;;;;;6.82;2.90;;;;;;;-1.60;76.89;96596.03;4981400;28;20030;-62
2021/04/07 05:24:35;;;;;;;3.80;2.70;;;;;;;-1.63;77.08;96593.94;4991033;28;20125;-62
2021/04/07 05:27:01;;;;;;;5.53;3.05;;;;;;;-1.71;76.69;96599.97;5025149;28;20034;-62
2021/04/07 05:29:27;;;;;;;4.20;2.70;;;;;;;-1.82;77.71;96610.03;5001315;28;20060;-62
2021/04/07 05:31:52;;;;;;;4.53;3.35;;;;;;;-1.56;76.81;96612.38;5002887;28;20046;-61
2021/04/07 05:34:18;;;;;;;3.80;2.72;;;;;;;-1.43;77.20;96621.59;4996360;28;20046;-62
2021/04/07 05:36:43;;;;;;;4.80;2.70;;;;;;;-1.48;76.64;96622.44;5001560;28;20437;-61
2021/04/07 05:39:08;;;;;;;4.60;3.08;;;;;;;-1.42;76.76;96628.56;4996766;28;20053;-61
2021/04/07 05:41:34;;;;;;;4.43;2.60;;;;;;;-1.56;76.25;96640.03;5004509;28;20417;-60
2021/04/07 05:43:59;;;;;;;6.85;3.33;;;;;;;-1.50;75.75;96645.34;4994913;28;20037;-61
2021/04/07 05:46:25;;;;;;;4.03;2.92;;;;;;;-1.24;76.01;96645.75;5001128;28;20056;-61
2021/04/07 05:48:50;;;;;;;3.80;3.10;;;;;;;-1.36;74.52;96656.94;5000165;28;20497;-60
2021/04/07 05:51:16;;;;;;;6.22;2.83;;;;;;;-1.26;75.15;96656.81;4998959;28;20052;-62
2021/04/07 05:53:41;;;;;;;6.40;3.00;;;;;;;-1.24;75.27;96654.63;5000214;28;20085;-63
2021/04/07 05:56:06;;;;;;;4.95;2.92;;;;;;;-1.26;75.29;96656.00;4996444;28;20064;-64
2021/04/07 05:58:32;;;;;;;8.23;6.07;;;;;;;-1.08;74.48;96662.44;4989074;28;20174;-64
2021/04/07 06:00:57;;;;;;;4.63;3.13;;;;;;;-1.25;74.50;96669.16;4989355;28;20049;-63
2021/04/07 06:03:23;;;;;;;4.43;3.20;;;;;;;-1.29;73.77;96678.88;4986629;28;20073;-62
2021/04/07 06:05:50;;;;;;;4.00;3.17;;;;;;;-1.14;72.58;96674.38;5003104;28;20045;-62
2021/04/07 06:08:17;;;;;;;5.78;3.35;;;;;;;-1.05;73.06;96697.63;5009035;28;20556;-62
2021/04/07 06:10:44;;;;;;;7.28;3.30;;;;;;;-0.88;72.88;96704.34;5020611;28;20497;-63
2021/04/07 06:13:11;;;;;;;4.72;2.83;;;;;;;-0.69;72.11;96707.81;5001997;28;20462;-62
2021/04/07 06:15:38;;;;;;;3.17;2.42;;;;;;;-0.48;70.29;96708.28;4997664;28;20045;-62
2021/04/07 06:18:07;;;;;;;4.68;2.90;;;;;;;-0.39;69.81;96714.59;4998411;28;20037;-62
2021/04/07 06:20:36;;;;;;;6.80;2.70;;;;;;;-0.55;70.57;96715.94;5011660;28;20045;-63
2021/04/07 06:23:04;;;;;;;4.43;2.60;;;;;;;-0.66;71.36;96719.91;4997246;28;20488;-63
2021/04/07 06:25:30;;;;;;;4.55;2.85;;;;;;;-0.97;71.12;96721.16;4976211;28;20065;-63
2021/04/07 06:27:58;;;;;;;3.97;2.83;;;;;;;-0.78;71.33;96725.72;4979356;28;20042;-62
2021/04/07 06:30:44;;;;;;;4.50;2.70;;;;;;;-0.90;71.87;96728.88;5006834;28;20240;-63
2021/04/07 06:33:28;;;;;;;6.28;3.15;;;;;;;-0.60;70.45;96727.56;5027291;23;20049;-66
2021/04/07 06:36:01;;;;;;;4.68;3.00;;;;;;;-0.57;71.68;96738.88;5031379;28;20083;-63
2021/04/07 06:38:27;;;;;;;4.40;2.90;;;;;;;-0.65;70.78;96732.25;5031423;28;20049;-65
2021/04/07 06:40:54;;;;;;;5.00;3.13;;;;;;;-0.73;70.85;96738.31;5040711;28;20171;-64
2021/04/07 06:43:22;;;;;;;5.07;2.70;;;;;;;-0.43;69.73;96745.88;5016979;28;20072;-64
2021/04/07 06:45:48;;;;;;;5.47;2.75;;;;;;;-0.31;69.55;96748.09;5028236;28;20436;-63
2021/04/07 06:48:15;;;;;;;5.78;2.55;;;;;;;-0.14;69.20;96757.53;5023141;28;20505;-64
2021/04/07 06:50:42;;;;;;;7.78;3.17;;;;;;;-0.37;71.03;96768.13;5019395;28;20063;-64
2021/04/07 06:53:08;;;;;;;4.75;2.50;;;;;;;-0.22;70.41;96772.47;5031407;28;20128;-63
2021/04/07 06:55:35;;;;;;;5.05;2.40;;;;;;;0.02;70.60;96775.03;5034939;28;20512;-64
2021/04/07 06:58:02;;;;;;;3.95;2.85;;;;;;;0.11;69.80;96777.81;5043823;28;20052;-65
2021/04/07 07:00:28;;;;;;;3.97;2.30;;;;;;;0.21;67.46;96779.53;5024486;28;20038;-64
2021/04/07 07:03:11;;;;;;;3.72;2.65;;;;;;;0.08;69.29;96790.00;5038876;28;20151;-64
2021/04/07 07:05:40;;;;;;;6.43;2.80;;;;;;;-0.02;69.10;96784.78;5020048;28;20049;-64
2021/04/07 07:08:08;;;;;;;5.03;2.58;;;;;;;-0.27;69.84;96792.19;5024267;28;20389;-65
2021/04/07 07:10:41;;;;;;;4.47;2.53;;;;;;;0.57;67.02;96807.41;5024344;28;20060;-65
2021/04/07 07:13:10;;;;;;;3.53;1.98;;;;;;;1.68;64.26;96803.72;5018630;28;20049;-65
2021/04/07 07:15:37;;;;;;;4.63;2.60;;;;;;;1.54;65.13;96814.56;5012084;28;20133;-65
2021/04/07 07:18:03;;;;;;;5.32;2.60;;;;;;;2.98;60.71;96816.31;5038606;28;20071;-60
2021/04/07 07:20:39;;;;;;;7.32;2.50;;;;;;;4.25;56.21;96815.38;5038965;28;20053;-63
2021/04/07 07:23:04;;;;;;;2.85;1.80;;;;;;;5.73;50.96;96815.44;5021259;28;20033;-62
2021/04/07 07:25:31;;;;;;;3.88;1.92;;;;;;;5.36;52.86;96817.94;5013194;28;20080;-63
2021/04/07 07:28:04;;;;;;;2.95;1.80;;;;;;;6.00;51.82;96826.94;5024451;28;20049;-65
2021/04/07 07:30:45;;;;;;;2.60;1.75;;;;;;;5.78;49.30;96819.88;5028638;28;20048;-64
2021/04/07 07:33:22;;;;;;;2.80;2.00;;;;;;;5.15;52.90;96834.22;5026427;28;20064;-63
2021/04/07 07:35:50;;;;;;;6.03;2.63;;;;;;;3.97;56.87;96832.00;5032047;28;20405;-64
2021/04/07 07:38:25;;;;;;;4.10;2.35;;;;;;;4.64;54.28;96841.44;5031999;28;20040;-63
2021/04/07 07:41:03;;;;;;;5.93;2.55;;;;;;;3.66;56.07;96848.44;5031208;28;20041;-63
2021/04/07 07:43:28;;;;;;;3.42;2.22;;;;;;;3.62;57.63;96851.00;5021378;28;20037;-62
2021/04/07 07:45:54;;;;;;;10.25;2.58;;;;;;;2.81;59.92;96861.13;5042560;28;20494;-63
2021/04/07 07:48:21;;;;;;;4.32;2.50;;;;;;;1.59;60.82;96856.84;5038904;28;20471;-62
2021/04/07 07:50:48;;;;;;;4.32;2.35;;;;;;;2.03;58.88;96866.09;5026977;28;20037;-64
2021/04/07 07:53:21;;;;;;;11.73;3.10;;;;;;;1.79;61.74;96875.28;5016835;28;20442;-64
2021/04/07 07:55:52;;;;;;;7.95;2.67;;;;;;;2.43;60.87;96864.28;5021382;28;20041;-62
2021/04/07 07:58:23;;;;;;;4.18;2.72;;;;;;;2.56;59.11;96875.34;5024715;28;20339;-65
2021/04/07 08:00:49;;;;;;;8.23;2.90;;;;;;;2.62;58.36;96884.91;5023767;28;20037;-64
2021/04/07 08:03:15;;;;;;;4.55;2.25;;;;;;;2.97;57.43;96871.53;5018080;28;20136;-63
2021/04/07 08:05:44;;;;;;;7.18;2.35;;;;;;;3.75;56.11;96877.13;5034474;28;20098;-62
2021/04/07 08:08:11;;;;;;;4.63;2.30;;;;;;;3.34;54.65;96882.94;5039397;28;20067;-64
2021/04/07 08:10:38;;;;;;;4.72;2.08;;;;;;;3.11;52.69;96891.16;5030500;28;20498;-63
2021/04/07 08:13:06;;;;;;;4.47;2.10;;;;;;;3.52;51.68;96895.41;5032785;28;20041;-61
2021/04/07 08:15:32;;;;;;;4.47;1.98;;;;;;;2.83;54.09;96907.59;5033897;28;20041;-63
2021/04/07 08:17:58;;;;;;;10.15;2.60;;;;;;;2.51;57.59;96900.59;5046966;28;20048;-62
2021/04/07 08:20:25;;;;;;;9.07;2.47;;;;;;;2.39;58.10;96911.94;5040493;28;20048;-62
2021/04/07 08:22:56;;;;;;;5.30;2.50;;;;;;;1.83;60.55;96914.06;5027950;28;20108;-65
2021/04/07 08:25:22;;;;;;;3.80;2.35;;;;;;;1.42;64.10;96927.66;5029103;28;20195;-66
2021/04/07 08:27:54;;;;;;;4.07;2.47;;;;;;;0.93;65.83;96916.47;5010850;28;20049;-62
2021/04/07 08:30:21;;;;;;;3.92;2.47;;;;;;;0.67;66.95;96924.25;5058839;28;20041;-63
2021/04/07 08:32:50;;;;;;;7.28;2.85;;;;;;;1.33;64.80;96928.38;5025326;28;20073;-63
2021/04/07 08:35:17;;;;;;;3.38;2.30;;;;;;;1.65;65.82;96937.41;5047132;28;20069;-62
2021/04/07 08:37:43;;;;;;;4.68;2.30;;;;;;;1.27;65.94;96934.97;5040924;28;20033;-63
2021/04/07 08:40:17;;;;;;;7.45;3.00;;;;;;;1.20;65.86;96942.66;5031377;28;20379;-63
2021/04/07 08:42:43;;;;;;;5.60;2.20;;;;;;;0.93;62.02;96943.44;5030387;28;20072;-63
2021/04/07 08:45:13;;;;;;;4.80;2.20;;;;;;;1.33;62.68;96947.25;5037056;28;20397;-63
2021/04/07 08:47:49;;;;;;;;;;;;;;;1.52;59.13;96952.53;5019112;28;20046;-63
2021/04/07 08:50:15;;;;;;;3.35;2.30;;;;;;;1.97;58.13;96959.97;5020553;28;19917;-64
2021/04/07 08:52:49;;;;;;;5.00;1.90;;;;;;;2.22;56.03;96949.69;5033530;28;20053;-62
2021/04/07 08:55:32;;;;;;;4.53;1.83;;;;;;;3.33;53.07;96957.97;5022387;28;20048;-63
2021/04/07 08:58:07;;;;;;;3.70;1.90;;;;;;;3.37;50.85;96952.72;5032949;28;20037;-64
2021/04/07 09:00:34;;;;;;;4.30;1.90;;;;;;;2.35;54.88;96964.25;5027353;28;20049;-66
2021/04/07 09:03:11;;;;;;;3.83;2.00;;;;;;;1.61;61.03;96963.44;5030666;28;20041;-61
2021/04/07 09:05:39;;;;;;;4.80;1.92;;;;;;;1.38;62.09;96969.84;5020356;28;20071;-63
2021/04/07 09:08:06;;;;;;;3.53;2.15;;;;;;;2.23;61.27;96954.78;5023527;28;20040;-63
2021/04/07 09:10:42;;;;;;;2.75;2.20;;;;;;;2.32;59.83;96960.25;5024308;28;20128;-62
2021/04/07 09:13:10;;;;;;;4.03;2.53;;;;;;;2.51;60.43;96962.00;5016706;28;20544;-64
2021/04/07 09:15:51;;;;;;;4.68;2.00;;;;;;;2.47;60.71;96964.50;5025522;28;20534;-65
2021/04/07 09:18:18;;;;;;;3.60;2.10;;;;;;;3.49;58.77;96971.84;5022446;28;20083;-63
2021/04/07 09:20:46;;;;;;;3.80;2.35;;;;;;;3.71;56.50;96964.75;5031778;28;20482;-63
2021/04/07 09:23:15;;;;;;;4.57;2.35;;;;;;;2.49;59.85;96982.00;5012563;28;20046;-63
2021/04/07 09:25:52;;;;;;;3.45;1.88;;;;;;;2.67;58.07;96982.13;5004000;28;20344;-66
2021/04/07 09:28:30;;;;;;;4.22;2.33;;;;;;;3.22;55.68;96981.00;5027909;28;20486;-65
2021/04/07 09:31:08;;;;;;;5.00;2.30;;;;;;;3.16;56.65;96988.47;5001779;28;20425;-64
2021/04/07 09:33:39;;;;;;;4.50;2.00;;;;;;;3.31;53.53;96989.94;4999047;28;20185;-63
2021/04/07 09:36:06;;;;;;;3.45;1.90;;;;;;;3.23;52.08;96985.31;5003890;28;20039;-61
2021/04/07 09:38:34;;;;;;;6.55;1.70;;;;;;;3.32;53.74;96988.06;5038705;28;20099;-63
2021/04/07 09:41:35;;;;;;;6.75;1.45;;;;;;;3.30;49.88;97006.53;5039080;28;20073;-64
2021/04/07 09:44:04;;;;;;;4.85;1.40;;;;;;;3.38;51.25;96998.41;5011773;28;20040;-63
2021/04/07 09:46:30;;;;;;;3.13;1.93;;;;;;;3.02;54.94;97004.78;5020274;28;20062;-64
2021/04/07 09:49:03;;;;;;;4.38;2.03;;;;;;;3.21;55.94;97003.78;5029738;28;20153;-64
2021/04/07 09:51:35;;;;;;;4.20;2.30;;;;;;;2.62;57.38;97007.38;5022300;28;20073;-63
2021/04/07 09:54:28;;;;;;;7.43;1.98;;;;;;;2.47;57.55;97002.34;5030394;28;20044;-64
2021/04/07 09:57:00;;;;;;;5.47;1.95;;;;;;;1.89;58.00;97010.13;5009180;28;20510;-64
2021/04/07 09:59:40;;;;;;;4.55;2.67;;;;;;;1.83;59.63;97024.81;5025312;28;20049;-62
2021/04/07 10:02:25;;;;;;;4.18;2.30;;;;;;;1.94;58.77;97013.81;5016340;28;20530;-61
2021/04/07 10:04:53;;;;;;;3.60;2.10;;;;;;;1.87;58.07;97014.19;5021653;28;20050;-62
2021/04/07 10:07:22;;;;;;;5.43;2.05;;;;;;;1.81;58.76;97016.22;5017784;28;20063;-63
2021/04/07 10:09:54;;;;;;;5.00;2.20;;;;;;;2.74;54.69;97030.38;5024802;28;20068;-64
2021/04/07 10:12:22;;;;;;;3.25;2.10;;;;;;;2.77;53.98;97016.25;5016295;28;20135;-62
2021/04/07 10:14:56;;;;;;;3.88;2.10;;;;;;;2.07;57.47;97029.19;5023525;28;20133;-63
2021/04/07 10:17:25;;;;;;;3.28;2.00;;;;;;;2.15;56.63;97033.88;5026058;28;22031;-63
2021/04/07 10:19:50;;;;;;;4.70;2.00;;;;;;;1.92;57.20;97036.50;5020403;28;20450;-63
2021/04/07 10:22:29;;;;;;;2.85;1.80;;;;;;;1.78;58.47;97032.22;5015960;28;20064;-64
2021/04/07 10:25:01;;;;;;;5.05;2.20;;;;;;;1.84;58.73;97039.13;5023530;28;20041;-65
2021/04/07 10:27:27;;;;;;;3.60;2.10;;;;;;;1.65;57.25;97025.72;5020620;28;20045;-62
2021/04/07 10:30:13;;;;;;;5.90;2.88;;;;;;;2.68;56.61;97040.50;5020474;28;20099;-65
2021/04/07 10:32:46;;;;;;;4.15;2.17;;;;;;;3.85;53.33;97024.25;5032330;28;20049;-65
2021/04/07 10:35:23;;;;;;;5.75;1.80;;;;;;;4.12;51.92;97026.69;5036964;28;20040;-63
2021/04/07 10:38:07;;;;;;;2.55;1.55;;;;;;;4.57;47.36;97018.28;5042119;28;20389;-63
2021/04/07 10:40:39;;;;;;;3.15;2.08;;;;;;;4.29;48.58;97020.50;5050167;28;20040;-63
2021/04/07 10:43:18;;;;;;;5.05;1.85;;;;;;;3.48;50.02;97016.31;5041743;28;20064;-62
2021/04/07 10:45:45;;;;;;;2.13;1.63;;;;;;;2.83;51.34;97028.56;5028364;28;20048;-63
2021/04/07 10:48:10;;;;;;;2.67;1.73;;;;;;;2.67;51.08;97020.78;5037469;28;20662;-63
2021/04/07 10:50:39;;;;;;;2.60;2.00;;;;;;;2.45;50.77;97039.72;5047406;28;20049;-63
2021/04/07 10:53:05;;;;;;;2.60;2.17;;;;;;;2.01;58.52;97043.91;5017465;28;20060;-60
2021/04/07 10:55:31;;;;;;;6.65;3.78;;;;;;;1.92;61.30;97047.31;5021479;28;20041;-63
2021/04/07 10:57:58;;;;;;;4.95;3.30;;;;;;;2.02;61.74;97056.34;5032011;28;20110;-62
2021/04/07 11:00:39;;;;;;;4.32;2.40;;;;;;;1.98;60.84;97047.22;5034909;28;20056;-63
2021/04/07 11:03:06;;;;;;;2.95;2.08;;;;;;;1.74;60.76;97052.84;5031843;28;20037;-61
2021/04/07 11:05:40;;;;;;;4.15;2.30;;;;;;;1.85;60.80;97054.22;5021155;28;20078;-63
2021/04/07 11:08:08;;;;;;;2.63;2.08;;;;;;;1.56;60.03;97049.13;4994887;28;20115;-63
2021/04/07 11:10:39;;;;;;;3.13;2.47;;;;;;;1.60;60.53;97033.94;4997652;28;20140;-63
2021/04/07 11:13:05;;;;;;;3.60;2.60;;;;;;;1.68;59.79;97044.84;4996071;28;20038;-62
2021/04/07 11:15:31;;;;;;;4.95;2.60;;;;;;;1.66;58.70;97049.72;5022546;28;20045;-63
2021/04/07 11:17:57;;;;;;;3.05;1.98;;;;;;;1.56;58.13;97049.13;5021643;28;20064;-63
2021/04/07 11:20:23;;;;;;;2.90;2.10;;;;;;;1.32;60.79;97053.59;5028413;28;20135;-62
2021/04/07 11:22:49;;;;;;;3.80;2.25;;;;;;;1.04;64.05;97060.84;5032265;28;20053;-61
2021/04/07 11:25:15;;;;;;;4.07;2.53;;;;;;;0.41;71.27;97066.69;5022450;28;20421;-63
2021/04/07 11:27:41;;;;;;;5.22;2.78;;;;;;;0.43;72.56;97069.88;5017023;28;20051;-64
2021/04/07 11:30:08;;;;;;;4.25;2.90;;;;;;;0.35;73.66;97072.16;5027079;28;20033;-64
2021/04/07 11:32:37;;;;;;;5.13;2.75;;;;;;;0.44;75.22;97080.38;5042762;28;20053;-64
2021/04/07 11:35:10;;;;;;;7.97;4.00;;;;;;;0.50;73.83;97079.19;5042065;28;20047;-64
2021/04/07 11:37:52;;;;;;;3.78;2.58;;;;;;;1.34;71.10;97074.91;5037631;28;20036;-64
2021/04/07 11:40:45;;;;;;;6.95;3.58;;;;;;;1.83;69.34;97068.03;5023618;28;20041;-63